Terminal Aerodrome Forecast
Issued by NWS Bismarck, ND

Home | Current Version | Previous Version | Text Only | Print | Product List | Glossary Off
Versions: 1 2 3 4 5 6 7 8 9 10 11 12 13 14 15 16 17 18

000
FTUS43 KBIS 240529
TAFBIS
TAF
KBIS 240529Z 2406/2506 07015G22KT 6SM BR OVC005
     FM240900 06011G19KT 3SM -RA BR OVC003
     FM241200 04008KT 4SM BR VCSH OVC003
     FM241400 01008KT P6SM VCSH OVC003
     FM241700 35009KT P6SM OVC010=

USA.gov is the U.S. government's official web portal to all federal, state and local government web resources and services.